Time;durP1;ratioP1;P1;durP2;ratioP2;P2;SDS_P1;SDS_P2;PMS_P1;PMS_P2;Temp;Humidity;BMP_temperature;BMP_pressure;BME280_temperature;BME280_humidity;BME280_pressure;Samples;Min_cycle;Max_cycle;Signal;HPM_P1;HPM_P2
2021/03/25 00:00:42;;;;;;;17.23;5.68;;;;;;;8.31;100.00;102380.06;5051395;28;20036;-69
2021/03/25 00:03:12;;;;;;;16.90;5.25;;;;;;;8.31;100.00;102374.63;5050409;28;20090;-69
2021/03/25 00:05:37;;;;;;;15.15;4.00;;;;;;;8.30;100.00;102378.38;5051208;28;20067;-70
2021/03/25 00:08:06;;;;;;;18.05;4.93;;;;;;;8.30;100.00;102379.22;5051179;28;20159;-68
2021/03/25 00:10:34;;;;;;;17.92;4.93;;;;;;;8.28;100.00;102375.00;5051168;28;20048;-69
2021/03/25 00:13:01;;;;;;;13.10;4.28;;;;;;;8.27;100.00;102374.16;5051442;28;20041;-68
2021/03/25 00:15:28;;;;;;;12.05;4.82;;;;;;;8.25;100.00;102369.94;5051083;28;20072;-69
2021/03/25 00:17:53;;;;;;;12.57;4.88;;;;;;;8.25;100.00;102367.22;5051021;28;20040;-69
2021/03/25 00:20:20;;;;;;;19.48;5.57;;;;;;;8.23;100.00;102361.13;5051094;28;20037;-68
2021/03/25 00:22:46;;;;;;;15.43;5.15;;;;;;;8.21;100.00;102352.31;5051053;28;20124;-69
2021/03/25 00:25:15;;;;;;;13.80;5.03;;;;;;;8.18;100.00;102353.53;5050923;28;20044;-70
2021/03/25 00:27:41;;;;;;;19.45;5.43;;;;;;;8.17;100.00;102357.31;5051119;28;20069;-68
2021/03/25 00:30:10;;;;;;;13.82;5.00;;;;;;;8.16;100.00;102361.06;5050953;28;20071;-69
2021/03/25 00:32:36;;;;;;;18.63;5.93;;;;;;;8.14;100.00;102347.59;5050766;28;20032;-70
2021/03/25 00:35:03;;;;;;;13.57;4.32;;;;;;;8.12;100.00;102348.84;5050806;28;20390;-68
2021/03/25 00:37:28;;;;;;;17.52;5.03;;;;;;;8.10;100.00;102346.31;5050838;28;20550;-68
2021/03/25 00:39:54;;;;;;;20.60;5.45;;;;;;;8.08;100.00;102348.38;5050932;28;20091;-68
2021/03/25 00:42:19;;;;;;;15.00;5.03;;;;;;;8.05;100.00;102346.03;5050765;28;20376;-70
2021/03/25 00:44:45;;;;;;;15.65;4.82;;;;;;;8.06;100.00;102344.16;5050548;28;20041;-68
2021/03/25 00:47:11;;;;;;;16.15;5.13;;;;;;;8.04;100.00;102336.19;5050613;28;20045;-69
2021/03/25 00:49:37;;;;;;;11.02;4.43;;;;;;;8.04;100.00;102335.34;5050663;28;20032;-69
2021/03/25 00:52:03;;;;;;;26.42;4.07;;;;;;;8.07;100.00;102335.81;5050665;28;20033;-69
2021/03/25 00:54:29;;;;;;;20.40;4.00;;;;;;;8.12;100.00;102333.34;5050693;28;20376;-70
2021/03/25 00:56:54;;;;;;;8.68;3.30;;;;;;;8.16;100.00;102336.56;5050700;28;20048;-68
2021/03/25 00:59:20;;;;;;;14.43;3.15;;;;;;;8.18;100.00;102336.38;5050517;28;20048;-68
2021/03/25 01:01:46;;;;;;;9.98;2.72;;;;;;;8.21;100.00;102325.09;5050665;28;20040;-68
2021/03/25 01:04:12;;;;;;;12.63;2.60;;;;;;;8.25;100.00;102332.69;5050700;28;20037;-69
2021/03/25 01:06:38;;;;;;;16.92;2.33;;;;;;;8.33;100.00;102323.53;5049096;28;20036;-69
2021/03/25 01:09:19;;;;;;;11.80;1.45;;;;;;;8.42;100.00;102317.00;5050586;28;20045;-69
2021/03/25 01:11:44;;;;;;;11.10;1.60;;;;;;;8.56;100.00;102313.41;5050580;28;20040;-70
2021/03/25 01:14:11;;;;;;;16.23;1.55;;;;;;;8.69;100.00;102319.00;5050647;28;20449;-69
2021/03/25 01:16:40;;;;;;;11.25;1.15;;;;;;;8.84;100.00;102312.63;5054475;28;20539;-68
2021/03/25 01:19:19;;;;;;;14.73;2.10;;;;;;;8.96;100.00;102308.34;5054558;28;20036;-69
2021/03/25 01:21:45;;;;;;;15.52;1.52;;;;;;;9.09;100.00;102313.06;5054483;28;20037;-68
2021/03/25 01:24:13;;;;;;;15.43;1.52;;;;;;;9.17;100.00;102305.59;5052991;28;20493;-69
2021/03/25 01:26:39;;;;;;;13.27;1.35;;;;;;;9.24;100.00;102295.59;5053999;28;20135;-69
2021/03/25 01:29:06;;;;;;;16.38;1.80;;;;;;;9.30;100.00;102294.78;5054291;28;20472;-68
2021/03/25 01:31:35;;;;;;;11.60;1.05;;;;;;;9.36;100.00;102288.53;5054286;28;20033;-68
2021/03/25 01:34:03;;;;;;;8.63;1.35;;;;;;;9.42;100.00;102281.47;5054094;28;20033;-69
2021/03/25 01:36:28;;;;;;;16.42;1.80;;;;;;;9.46;100.00;102293.66;5054067;28;20090;-69
2021/03/25 01:38:54;;;;;;;13.82;1.75;;;;;;;9.49;100.00;102286.94;5053959;28;20499;-69
2021/03/25 01:41:21;;;;;;;12.20;2.00;;;;;;;9.53;100.00;102288.22;5054020;28;20041;-69
2021/03/25 01:43:47;;;;;;;10.93;1.30;;;;;;;9.55;100.00;102275.25;5053816;28;20120;-68
2021/03/25 01:46:18;;;;;;;16.77;2.38;;;;;;;9.57;100.00;102273.16;5053817;28;20450;-68
2021/03/25 01:48:47;;;;;;;13.32;1.20;;;;;;;9.58;100.00;102274.84;5053860;28;20184;-69
2021/03/25 01:51:40;;;;;;;15.15;1.92;;;;;;;9.59;100.00;102266.47;5053845;28;20507;-68
2021/03/25 01:54:30;;;;;;;14.68;1.63;;;;;;;9.60;100.00;102272.75;5053791;28;20364;-68
2021/03/25 01:57:14;;;;;;;14.60;1.30;;;;;;;9.60;100.00;102278.22;5052448;28;20376;-68
2021/03/25 02:00:24;;;;;;;9.55;1.35;;;;;;;9.61;100.00;102271.72;5053738;28;20032;-69
2021/03/25 02:03:20;;;;;;;16.70;2.22;;;;;;;9.62;100.00;102270.69;5053735;28;20068;-68
2021/03/25 02:05:55;;;;;;;10.32;1.90;;;;;;;9.65;100.00;102264.81;5053557;28;20467;-69
2021/03/25 02:08:57;;;;;;;15.35;1.90;;;;;;;9.67;100.00;102260.00;5053536;28;20041;-69
2021/03/25 02:12:00;;;;;;;13.68;2.50;;;;;;;9.69;100.00;102249.72;5048373;28;20045;-68
2021/03/25 02:14:47;;;;;;;14.20;1.20;;;;;;;9.72;100.00;102254.78;5053360;28;20157;-68
2021/03/25 02:17:40;;;;;;;15.45;1.45;;;;;;;9.76;100.00;102255.22;5053364;28;20033;-68
2021/03/25 02:20:24;;;;;;;11.27;2.05;;;;;;;9.77;100.00;102241.38;5050326;28;20068;-69
2021/03/25 02:23:12;;;;;;;9.32;1.73;;;;;;;9.80;100.00;102243.69;5053248;28;20037;-69
2021/03/25 02:25:43;;;;;;;15.05;2.03;;;;;;;9.84;100.00;102235.94;5052636;28;20037;-69
2021/03/25 02:28:41;;;;;;;15.00;2.42;;;;;;;9.85;100.00;102248.53;5052560;28;20492;-68
2021/03/25 02:31:15;;;;;;;12.05;2.25;;;;;;;9.87;100.00;102236.38;5053118;28;20051;-68
2021/03/25 02:33:45;;;;;;;12.27;2.17;;;;;;;9.90;100.00;102232.41;5053025;28;20029;-68
2021/03/25 02:36:14;;;;;;;14.25;2.20;;;;;;;9.89;100.00;102223.38;5051832;28;20060;-69
2021/03/25 02:38:45;;;;;;;15.25;1.77;;;;;;;9.90;100.00;102224.22;5052934;28;20078;-68
2021/03/25 02:41:24;;;;;;;14.60;1.38;;;;;;;9.91;100.00;102215.84;5052985;28;20368;-69
2021/03/25 02:43:57;;;;;;;16.60;1.33;;;;;;;9.91;100.00;102221.28;5052749;28;20037;-69
2021/03/25 02:46:31;;;;;;;10.07;1.77;;;;;;;9.92;100.00;102216.69;5051507;28;20036;-68
2021/03/25 02:49:01;;;;;;;18.03;1.87;;;;;;;9.93;100.00;102218.34;5051458;28;20106;-68
2021/03/25 02:51:31;;;;;;;19.30;2.10;;;;;;;9.94;100.00;102225.50;5052698;28;20277;-69
2021/03/25 02:53:57;;;;;;;12.40;1.73;;;;;;;9.95;100.00;102217.09;5052627;28;20043;-69
2021/03/25 02:56:45;;;;;;;18.17;2.08;;;;;;;9.97;100.00;102212.28;5052572;28;20064;-69
2021/03/25 02:59:24;;;;;;;16.50;1.75;;;;;;;9.97;100.00;102220.47;5052598;28;20091;-69
2021/03/25 03:01:55;;;;;;;12.63;1.40;;;;;;;9.96;100.00;102213.31;5052599;28;20482;-69
2021/03/25 03:04:26;;;;;;;14.30;1.42;;;;;;;9.97;100.00;102212.28;5052420;28;20029;-68
2021/03/25 03:07:02;;;;;;;12.93;2.08;;;;;;;10.00;100.00;102207.44;5052272;28;20037;-68
2021/03/25 03:09:34;;;;;;;17.00;1.90;;;;;;;10.00;100.00;102207.44;5052458;28;20037;-69
2021/03/25 03:12:02;;;;;;;14.15;1.80;;;;;;;10.02;100.00;102210.81;5051001;28;20036;-69
2021/03/25 03:15:04;;;;;;;21.75;1.70;;;;;;;10.03;100.00;102212.50;5050921;28;20063;-69
2021/03/25 03:17:42;;;;;;;13.82;1.90;;;;;;;10.05;100.00;102204.94;5051890;28;20045;-68
2021/03/25 03:20:16;;;;;;;13.80;1.95;;;;;;;10.05;100.00;102207.66;5052226;28;20043;-69
2021/03/25 03:22:42;;;;;;;11.82;1.65;;;;;;;10.06;100.00;102203.88;5052122;28;20036;-68
2021/03/25 03:25:11;;;;;;;11.93;1.42;;;;;;;10.07;100.00;102198.25;5052077;28;20033;-68
2021/03/25 03:27:45;;;;;;;13.65;1.98;;;;;;;10.07;100.00;102200.97;5051740;28;20136;-69
2021/03/25 03:30:16;;;;;;;13.37;1.70;;;;;;;10.11;100.00;102201.41;5051840;28;20427;-69
2021/03/25 03:32:45;;;;;;;15.35;1.58;;;;;;;10.11;100.00;102195.94;5051916;28;20048;-69
2021/03/25 03:35:19;;;;;;;9.93;1.67;;;;;;;10.12;100.00;102192.16;5051956;28;20334;-69
2021/03/25 03:37:49;;;;;;;;;;;;;;;10.13;100.00;102196.56;5052029;28;20044;-69
2021/03/25 03:40:27;;;;;;;11.05;1.50;;;;;;;10.14;100.00;102192.81;5051831;28;19923;-68
2021/03/25 03:43:06;;;;;;;14.43;1.85;;;;;;;10.15;100.00;102197.22;5051818;28;20029;-68
2021/03/25 03:45:37;;;;;;;13.18;1.63;;;;;;;10.16;100.00;102190.69;5051702;28;20048;-68
2021/03/25 03:48:08;;;;;;;8.77;1.45;;;;;;;10.17;100.00;102186.91;5050313;28;20044;-69
2021/03/25 03:50:39;;;;;;;13.13;1.48;;;;;;;10.17;100.00;102181.47;5051595;28;20059;-69
2021/03/25 03:53:05;;;;;;;13.23;1.63;;;;;;;10.18;100.00;102183.13;5051520;28;20033;-68
2021/03/25 03:55:31;;;;;;;15.63;2.03;;;;;;;10.18;100.00;102186.72;5051536;28;20041;-69
2021/03/25 03:58:15;;;;;;;15.52;2.53;;;;;;;10.20;100.00;102183.78;5051540;28;20052;-69
2021/03/25 04:00:45;;;;;;;16.50;1.98;;;;;;;10.20;100.00;102175.56;5051380;28;20082;-68
2021/03/25 04:03:30;;;;;;;9.90;1.20;;;;;;;10.20;100.00;102170.13;5051547;28;20051;-69
2021/03/25 04:06:06;;;;;;;15.15;1.58;;;;;;;10.21;100.00;102188.22;5051299;28;20107;-68
2021/03/25 04:08:42;;;;;;;14.52;1.70;;;;;;;10.22;100.00;102178.97;5051370;28;20419;-68
2021/03/25 04:11:17;;;;;;;18.17;1.88;;;;;;;10.23;100.00;102180.66;5051175;28;20502;-67
2021/03/25 04:13:48;;;;;;;19.88;1.90;;;;;;;10.24;100.00;102172.28;5051284;28;20037;-69
2021/03/25 04:16:20;;;;;;;11.57;1.33;;;;;;;10.23;100.00;102170.56;5051263;28;20104;-68
2021/03/25 04:19:14;;;;;;;12.90;1.83;;;;;;;10.26;100.00;102174.81;5051095;28;20048;-70
2021/03/25 04:21:45;;;;;;;9.30;1.48;;;;;;;10.25;100.00;102167.66;5051035;28;20483;-68
2021/03/25 04:24:18;;;;;;;18.77;2.63;;;;;;;10.27;100.00;102171.03;5050980;28;20033;-69
2021/03/25 04:26:56;;;;;;;17.23;1.52;;;;;;;10.26;100.00;102153.78;5050783;28;20037;-68
2021/03/25 04:29:32;;;;;;;15.88;1.48;;;;;;;10.28;100.00;102167.25;5051030;28;20043;-68
2021/03/25 04:31:58;;;;;;;14.60;2.05;;;;;;;10.31;100.00;102174.16;5050848;28;20094;-68
2021/03/25 04:34:25;;;;;;;17.30;1.80;;;;;;;10.31;100.00;102177.75;5050855;28;20437;-69
2021/03/25 04:36:52;;;;;;;10.23;1.40;;;;;;;10.33;100.00;102180.25;5050810;28;20116;-68
2021/03/25 04:39:19;;;;;;;14.93;1.63;;;;;;;10.32;100.00;102173.97;5051025;28;20041;-68
2021/03/25 04:41:46;;;;;;;17.33;1.92;;;;;;;10.34;100.00;102174.59;5050902;28;20033;-67
2021/03/25 04:44:33;;;;;;;17.85;2.10;;;;;;;10.34;100.00;102177.31;5050622;28;20055;-69
2021/03/25 04:47:04;;;;;;;20.45;2.10;;;;;;;10.33;100.00;102170.19;5050756;28;20120;-68
2021/03/25 04:49:33;;;;;;;15.80;2.22;;;;;;;10.32;100.00;102168.50;5050268;28;20032;-68
2021/03/25 04:52:03;;;;;;;20.40;2.10;;;;;;;10.33;100.00;102169.34;5050733;28;20064;-68
2021/03/25 04:54:30;;;;;;;21.67;2.08;;;;;;;10.32;100.00;102173.97;5050600;28;20479;-68
2021/03/25 04:57:02;;;;;;;14.43;2.20;;;;;;;10.32;100.00;102173.97;5050585;28;20040;-69
2021/03/25 04:59:29;;;;;;;21.88;3.00;;;;;;;10.34;100.00;102171.84;5050625;28;20032;-68
2021/03/25 05:01:55;;;;;;;16.08;2.63;;;;;;;10.35;100.00;102173.53;5050605;28;20499;-68
2021/03/25 05:04:20;;;;;;;17.95;1.58;;;;;;;10.34;100.00;102177.31;5050659;28;20051;-69
2021/03/25 05:06:57;;;;;;;16.17;2.03;;;;;;;10.35;100.00;102173.53;5050503;28;20037;-69
2021/03/25 05:09:25;;;;;;;12.82;1.67;;;;;;;10.35;100.00;102168.06;5050650;28;20032;-68
2021/03/25 05:11:51;;;;;;;15.90;3.10;;;;;;;10.35;100.00;102179.00;5050460;28;20045;-70
2021/03/25 05:14:24;;;;;;;22.20;2.42;;;;;;;10.36;100.00;102168.91;5050395;28;20064;-68
2021/03/25 05:17:04;;;;;;;19.85;3.15;;;;;;;10.35;100.00;102170.81;5050455;28;20029;-69
2021/03/25 05:19:42;;;;;;;22.70;2.75;;;;;;;10.37;100.00;102165.13;5050556;28;20055;-69
2021/03/25 05:22:11;;;;;;;21.20;2.00;;;;;;;10.37;100.00;102162.41;5050388;28;20028;-69
2021/03/25 05:24:46;;;;;;;16.45;2.45;;;;;;;10.33;100.00;102159.25;5050485;28;20123;-68
2021/03/25 05:27:30;;;;;;;23.70;2.08;;;;;;;10.35;100.00;102156.31;5050035;28;20040;-68
2021/03/25 05:29:59;;;;;;;16.02;2.10;;;;;;;10.35;100.00;102154.41;5050401;28;20041;-69
2021/03/25 05:32:32;;;;;;;18.17;2.75;;;;;;;10.36;100.00;102152.53;5050239;28;20062;-68
2021/03/25 05:35:01;;;;;;;16.25;2.60;;;;;;;10.36;100.00;102147.91;5050304;28;20033;-69
2021/03/25 05:37:27;;;;;;;17.50;2.75;;;;;;;10.36;100.00;102147.91;5050339;28;20559;-68
2021/03/25 05:39:53;;;;;;;20.30;3.92;;;;;;;10.37;100.00;102149.59;5050215;28;20124;-68
2021/03/25 05:43:03;;;;;;;18.48;3.13;;;;;;;10.38;100.00;102148.53;5050690;28;20064;-69
2021/03/25 05:45:55;;;;;;;20.70;2.20;;;;;;;10.39;100.00;102155.69;5034175;28;20043;-69
2021/03/25 05:48:45;;;;;;;25.92;2.90;;;;;;;10.38;100.00;102154.00;5050004;28;20068;-69
2021/03/25 05:51:19;;;;;;;21.45;3.20;;;;;;;10.39;100.00;102161.13;5050142;28;20479;-68
2021/03/25 05:54:22;;;;;;;12.15;2.20;;;;;;;10.39;100.00;102161.13;5050346;28;20477;-69
2021/03/25 05:57:17;;;;;;;26.15;3.15;;;;;;;10.40;100.00;102160.09;5050319;28;20057;-68
2021/03/25 06:00:10;;;;;;;32.97;3.20;;;;;;;10.42;100.00;102157.19;5050606;28;20036;-69
2021/03/25 06:02:44;;;;;;;27.35;3.53;;;;;;;10.41;100.00;102147.28;5041133;28;20415;-69
2021/03/25 06:05:12;;;;;;;17.30;1.85;;;;;;;10.41;100.00;102159.06;5053552;28;20151;-68
2021/03/25 06:08:02;;;;;;;21.17;2.78;;;;;;;10.43;100.00;102165.16;5053504;28;20033;-68
2021/03/25 06:11:03;;;;;;;14.95;2.45;;;;;;;10.43;100.00;102165.16;5053656;28;20459;-69
2021/03/25 06:13:44;;;;;;;23.20;2.70;;;;;;;10.42;100.00;102163.47;5053413;28;20064;-68
2021/03/25 06:16:41;;;;;;;21.00;2.45;;;;;;;10.40;100.00;102165.56;5053406;28;20110;-68
2021/03/25 06:19:09;;;;;;;29.13;2.92;;;;;;;10.40;100.00;102176.47;5053382;28;20040;-69
2021/03/25 06:22:00;;;;;;;19.00;3.17;;;;;;;10.38;100.00;102161.34;5053284;28;20368;-69
2021/03/25 06:24:28;;;;;;;24.90;2.80;;;;;;;10.37;100.00;102176.06;5053218;28;20056;-68
2021/03/25 06:27:00;;;;;;;22.25;2.78;;;;;;;10.38;100.00;102172.28;5053014;28;20132;-68
2021/03/25 06:29:34;;;;;;;20.08;3.00;;;;;;;10.38;100.00;102172.28;5053081;28;20040;-68
2021/03/25 06:32:08;;;;;;;30.67;3.30;;;;;;;10.37;100.00;102165.97;5053353;28;20090;-68
2021/03/25 06:34:49;;;;;;;22.65;3.88;;;;;;;10.37;100.00;102179.63;5053007;28;20040;-69
2021/03/25 06:37:24;;;;;;;27.00;2.67;;;;;;;10.35;100.00;102179.00;5053024;28;20029;-69
2021/03/25 06:39:57;;;;;;;22.58;2.92;;;;;;;10.34;100.00;102171.84;5052935;28;20063;-69
2021/03/25 06:42:26;;;;;;;24.45;3.45;;;;;;;10.35;100.00;102179.00;5052978;28;20040;-68
2021/03/25 06:45:04;;;;;;;29.65;4.38;;;;;;;10.36;100.00;102174.38;5052800;28;20029;-68
2021/03/25 06:48:04;;;;;;;22.38;3.30;;;;;;;10.35;100.00;102173.53;5052731;28;20124;-68
2021/03/25 06:50:36;;;;;;;28.20;3.50;;;;;;;10.35;100.00;102194.56;5052744;28;20039;-69
2021/03/25 06:53:25;;;;;;;31.42;4.88;;;;;;;10.36;100.00;102175.22;5052772;28;20266;-68
2021/03/25 06:56:08;;;;;;;24.25;3.67;;;;;;;10.37;100.00;102182.38;5052708;28;20036;-69
2021/03/25 06:58:48;;;;;;;23.17;2.85;;;;;;;10.40;100.00;102181.09;5052658;28;20040;-68
2021/03/25 07:01:27;;;;;;;19.25;2.72;;;;;;;10.42;100.00;102181.75;5052577;28;20040;-69
2021/03/25 07:03:57;;;;;;;28.58;3.80;;;;;;;10.42;100.00;102185.34;5052538;28;20036;-68
2021/03/25 07:06:27;;;;;;;24.90;3.42;;;;;;;10.43;100.00;102180.72;5052326;28;20029;-68
2021/03/25 07:08:54;;;;;;;22.35;3.50;;;;;;;10.42;100.00;102174.41;5052461;28;20037;-69
2021/03/25 07:11:24;;;;;;;26.23;2.92;;;;;;;10.44;100.00;102187.84;5052370;28;20041;-68
2021/03/25 07:14:10;;;;;;;34.85;4.35;;;;;;;10.45;100.00;102193.09;5051917;28;20395;-68
2021/03/25 07:16:47;;;;;;;31.38;3.60;;;;;;;10.49;100.00;102180.72;5052332;28;20029;-68
2021/03/25 07:19:20;;;;;;;29.20;4.13;;;;;;;10.54;100.00;102186.38;5052185;28;20044;-69
2021/03/25 07:21:50;;;;;;;38.13;5.00;;;;;;;10.58;100.00;102190.34;5052251;28;20036;-68
2021/03/25 07:24:34;;;;;;;22.02;3.00;;;;;;;10.60;100.00;102189.34;5052072;28;20035;-69
2021/03/25 07:27:11;;;;;;;27.63;3.53;;;;;;;10.65;100.00;102184.06;5051815;28;20137;-68
2021/03/25 07:29:41;;;;;;;29.90;4.35;;;;;;;10.68;100.00;102194.59;5051798;28;20044;-67
2021/03/25 07:32:08;;;;;;;24.38;3.30;;;;;;;10.71;100.00;102196.88;5052101;28;20041;-68
2021/03/25 07:34:38;;;;;;;18.52;3.35;;;;;;;10.72;100.00;102180.28;5051830;28;20037;-68
2021/03/25 07:37:07;;;;;;;38.63;4.65;;;;;;;10.73;100.00;102175.66;5051917;28;20033;-67
2021/03/25 07:39:50;;;;;;;32.35;4.45;;;;;;;10.74;100.00;102171.88;5051704;28;20033;-68
2021/03/25 07:42:37;;;;;;;28.13;3.45;;;;;;;10.77;100.00;102176.94;5051792;28;20405;-68
2021/03/25 07:45:39;;;;;;;30.33;4.15;;;;;;;10.78;100.00;102175.88;5051768;28;20111;-68
2021/03/25 07:48:25;;;;;;;24.33;3.45;;;;;;;10.80;100.00;102181.97;5029067;28;20052;-68
2021/03/25 07:51:08;;;;;;;25.92;3.13;;;;;;;10.82;100.00;102190.81;5050413;28;20526;-68
2021/03/25 07:53:39;;;;;;;35.35;4.20;;;;;;;10.88;100.00;102184.47;5051555;28;20079;-68
2021/03/25 07:56:09;;;;;;;20.65;3.58;;;;;;;10.91;100.00;102184.06;5050210;28;20037;-68
2021/03/25 07:58:41;;;;;;;30.10;4.65;;;;;;;10.92;100.00;102179.44;5051519;28;20499;-68
2021/03/25 08:01:11;;;;;;;30.92;3.58;;;;;;;10.97;100.00;102188.69;5051482;28;20499;-68
2021/03/25 08:04:03;;;;;;;22.02;3.55;;;;;;;10.98;100.00;102179.44;5051653;28;20135;-68
2021/03/25 08:06:35;;;;;;;36.80;4.10;;;;;;;11.01;100.00;102189.94;5050123;28;20048;-68
2021/03/25 08:09:09;;;;;;;29.83;4.20;;;;;;;11.02;100.00;102185.31;5051465;28;20047;-68
2021/03/25 08:11:52;;;;;;;23.10;3.40;;;;;;;11.01;100.00;102176.28;5051215;28;20102;-68
2021/03/25 08:14:22;;;;;;;25.58;2.92;;;;;;;11.00;100.00;102177.34;5051172;28;20032;-68
2021/03/25 08:16:50;;;;;;;31.30;3.83;;;;;;;11.00;100.00;102182.78;5051174;28;20041;-68
2021/03/25 08:19:35;;;;;;;27.55;2.70;;;;;;;11.02;100.00;102180.69;5051056;28;20067;-68
2021/03/25 08:22:01;;;;;;;36.78;3.45;;;;;;;11.09;100.00;102183.41;5051131;28;20376;-68
2021/03/25 08:24:52;;;;;;;27.48;3.25;;;;;;;11.08;100.00;102185.28;5050155;28;20063;-69
2021/03/25 08:27:32;;;;;;;28.67;4.75;;;;;;;11.13;100.00;102182.78;5050601;28;20151;-68
2021/03/25 08:30:24;;;;;;;29.60;3.65;;;;;;;11.21;100.00;102189.06;5050950;28;20033;-68
2021/03/25 08:33:22;;;;;;;27.35;4.82;;;;;;;11.25;100.00;102187.59;5050779;28;20033;-69
2021/03/25 08:36:09;;;;;;;27.83;4.28;;;;;;;11.30;100.00;102187.81;5030278;28;20183;-66
2021/03/25 08:38:38;;;;;;;39.78;4.82;;;;;;;11.28;100.00;102189.88;5046161;28;20557;-67
2021/03/25 08:41:13;;;;;;;24.38;3.38;;;;;;;11.31;100.00;102195.78;5044226;28;20491;-66
2021/03/25 08:43:52;;;;;;;22.70;3.08;;;;;;;11.36;100.00;102193.25;5045940;28;20033;-70
2021/03/25 08:46:40;;;;;;;32.08;3.95;;;;;;;11.44;100.00;102183.94;5031155;28;20130;-65
2021/03/25 08:49:16;;;;;;;30.15;4.85;;;;;;;11.47;100.00;102189.03;5042334;28;20039;-67
2021/03/25 08:51:43;;;;;;;30.73;3.72;;;;;;;11.53;100.00;102188.16;5048035;28;20588;-69
2021/03/25 08:54:32;;;;;;;31.35;4.07;;;;;;;11.55;100.00;102186.03;5046987;28;20021;-66
2021/03/25 08:57:05;;;;;;;29.17;3.60;;;;;;;11.54;100.00;102184.34;5030587;28;20063;-68
2021/03/25 08:59:37;;;;;;;37.37;4.17;;;;;;;11.56;100.00;102187.72;5041118;28;20076;-69
2021/03/25 09:02:26;;;;;;;25.67;4.20;;;;;;;11.57;100.00;102183.06;5048432;28;20826;-66
2021/03/25 09:04:57;;;;;;;30.17;3.90;;;;;;;11.62;100.00;102184.09;5047061;28;20075;-66
2021/03/25 09:07:25;;;;;;;30.42;3.38;;;;;;;11.65;100.00;102186.44;5037522;28;20033;-65
2021/03/25 09:09:54;;;;;;;35.45;4.03;;;;;;;11.72;100.00;102184.50;5048339;28;20098;-65
2021/03/25 09:12:24;;;;;;;25.67;3.50;;;;;;;11.82;100.00;102185.97;5038083;28;20534;-69
2021/03/25 09:14:51;;;;;;;31.75;4.28;;;;;;;11.94;100.00;102185.03;5060071;28;20095;-66
2021/03/25 09:17:20;;;;;;;24.77;3.58;;;;;;;11.95;100.00;102175.78;5049619;28;20030;-66
2021/03/25 09:19:57;;;;;;;25.70;3.58;;;;;;;11.98;100.00;102190.94;5029338;28;20037;-68
2021/03/25 09:22:49;;;;;;;27.65;4.43;;;;;;;11.93;100.00;102177.06;5031437;28;20045;-67
2021/03/25 09:25:27;;;;;;;28.77;3.38;;;;;;;11.91;100.00;102184.66;5042827;28;20033;-67
2021/03/25 09:27:55;;;;;;;27.73;4.03;;;;;;;11.90;100.00;102177.50;5042426;28;20048;-68
2021/03/25 09:30:38;;;;;;;23.55;3.63;;;;;;;11.89;100.00;102178.56;5049610;28;20577;-65
2021/03/25 09:33:35;;;;;;;20.92;2.97;;;;;;;11.90;100.00;102177.50;5049398;28;20301;-65
2021/03/25 09:36:01;;;;;;;21.50;3.63;;;;;;;11.94;100.00;102167.78;5050585;28;20053;-68
2021/03/25 09:38:33;;;;;;;19.70;3.28;;;;;;;11.96;100.00;102163.75;5053689;28;20086;-67
2021/03/25 09:41:02;;;;;;;27.25;4.65;;;;;;;11.92;100.00;102164.41;5052534;28;20053;-64
2021/03/25 09:43:54;;;;;;;26.38;4.50;;;;;;;11.92;100.00;102167.16;5053439;28;20037;-65
2021/03/25 09:46:38;;;;;;;31.05;3.60;;;;;;;11.93;100.00;102174.31;5036163;28;20085;-67
2021/03/25 09:49:27;;;;;;;32.17;3.70;;;;;;;11.96;100.00;102160.19;5042517;28;20079;-66
2021/03/25 09:52:08;;;;;;;30.05;3.83;;;;;;;11.97;100.00;102161.84;5033847;28;20037;-69
2021/03/25 09:54:40;;;;;;;26.88;3.38;;;;;;;11.95;100.00;102161.25;5033544;28;20041;-69
2021/03/25 09:57:24;;;;;;;24.27;2.92;;;;;;;11.92;100.00;102157.06;5033715;28;20407;-69
2021/03/25 09:59:58;;;;;;;31.08;5.32;;;;;;;11.90;100.00;102156.44;5033824;28;20056;-69
2021/03/25 10:02:49;;;;;;;28.63;3.47;;;;;;;11.99;100.00;102154.28;5033721;28;20120;-69
2021/03/25 10:05:36;;;;;;;25.73;3.65;;;;;;;12.08;100.00;102152.97;5033628;28;20033;-69
2021/03/25 10:08:14;;;;;;;23.92;3.72;;;;;;;12.07;100.00;102152.13;5033403;28;20048;-68
2021/03/25 10:10:49;;;;;;;21.10;3.15;;;;;;;12.24;100.00;102157.06;5033501;28;20034;-69
2021/03/25 10:13:43;;;;;;;18.35;2.55;;;;;;;12.33;100.00;102145.63;5033428;28;20116;-68
2021/03/25 10:16:33;;;;;;;27.47;3.60;;;;;;;12.47;100.00;102134.56;5033269;28;20126;-69
2021/03/25 10:19:03;;;;;;;22.92;3.05;;;;;;;12.62;100.00;102149.59;5031931;28;20301;-68
2021/03/25 10:21:43;;;;;;;27.13;4.13;;;;;;;12.77;100.00;102140.19;5033324;28;20041;-70
2021/03/25 10:24:19;;;;;;;23.77;3.35;;;;;;;12.93;100.00;102145.13;5033240;28;20033;-70
2021/03/25 10:26:47;;;;;;;22.48;3.10;;;;;;;13.06;100.00;102135.91;5033219;28;20076;-67
2021/03/25 10:29:17;;;;;;;25.75;3.75;;;;;;;13.21;100.00;102142.75;5042557;28;20029;-67
2021/03/25 10:31:50;;;;;;;29.25;4.13;;;;;;;13.33;100.00;102145.56;5038666;28;20029;-73
2021/03/25 10:34:30;;;;;;;25.65;3.30;;;;;;;13.46;100.00;102148.16;5052956;28;20114;-72
2021/03/25 10:37:02;;;;;;;25.55;3.75;;;;;;;13.32;100.00;102143.88;5053053;28;20486;-70
2021/03/25 10:39:39;;;;;;;22.40;3.42;;;;;;;13.21;100.00;102141.91;5052929;28;20033;-75
2021/03/25 10:42:14;;;;;;;30.63;5.20;;;;;;;13.04;100.00;102129.81;5053093;28;20037;-73
2021/03/25 10:44:40;;;;;;;28.17;4.13;;;;;;;13.03;100.00;102128.16;5052753;28;20044;-70
2021/03/25 10:47:19;;;;;;;21.27;3.42;;;;;;;13.03;100.00;102133.63;5050302;28;20056;-71
2021/03/25 10:49:54;;;;;;;21.55;3.55;;;;;;;13.11;100.00;102125.09;5052716;28;20052;-73
2021/03/25 10:52:36;;;;;;;23.30;3.00;;;;;;;13.10;100.00;102128.91;5052722;28;20098;-74
2021/03/25 10:55:19;;;;;;;19.55;3.55;;;;;;;13.06;100.00;102128.53;5051740;28;20040;-68
2021/03/25 10:57:52;;;;;;;20.20;3.40;;;;;;;12.98;100.00;102131.56;5050493;28;20035;-68
2021/03/25 11:00:32;;;;;;;23.73;3.60;;;;;;;12.92;100.00;102127.81;5052291;28;20057;-70
2021/03/25 11:02:59;;;;;;;18.17;2.63;;;;;;;12.86;100.00;102139.72;5048438;28;20123;-69
2021/03/25 11:05:27;;;;;;;25.65;3.83;;;;;;;12.80;100.00;102126.88;5048544;28;20041;-70
2021/03/25 11:07:58;;;;;;;27.35;3.70;;;;;;;12.77;100.00;102130.06;5047212;28;20037;-68
2021/03/25 11:10:25;;;;;;;20.02;3.95;;;;;;;12.80;100.00;102129.63;5052067;28;20037;-70
2021/03/25 11:13:03;;;;;;;16.33;2.53;;;;;;;12.76;100.00;102131.13;5051208;28;20029;-69
2021/03/25 11:15:38;;;;;;;26.80;4.13;;;;;;;12.72;100.00;102127.19;5050933;28;20120;-70
2021/03/25 11:18:22;;;;;;;26.85;3.53;;;;;;;12.60;100.00;102128.97;5052098;28;20029;-69
2021/03/25 11:20:49;;;;;;;21.52;3.72;;;;;;;12.60;100.00;102132.53;5052166;28;20090;-71
2021/03/25 11:23:17;;;;;;;16.83;2.45;;;;;;;12.56;100.00;102125.84;5052024;28;20045;-69
2021/03/25 11:25:43;;;;;;;26.38;4.03;;;;;;;12.60;100.00;102134.44;5052161;28;20029;-70
2021/03/25 11:28:15;;;;;;;21.80;2.90;;;;;;;12.54;100.00;102122.50;5050553;28;20053;-69
2021/03/25 11:30:42;;;;;;;16.30;2.67;;;;;;;12.69;100.00;102122.16;5051688;28;20114;-69
2021/03/25 11:33:29;;;;;;;25.10;4.00;;;;;;;12.70;100.00;102118.34;5051628;28;20091;-70
2021/03/25 11:35:57;;;;;;;24.05;3.95;;;;;;;12.68;100.00;102109.50;5051777;28;20849;-68
2021/03/25 11:38:26;;;;;;;24.90;3.83;;;;;;;12.71;100.00;102119.19;5050233;28;20033;-68
2021/03/25 11:40:59;;;;;;;17.00;2.60;;;;;;;12.85;100.00;102112.50;5051589;28;20123;-69
2021/03/25 11:43:47;;;;;;;18.58;2.95;;;;;;;12.91;100.00;102115.19;5051603;28;20029;-69
2021/03/25 11:46:40;;;;;;;16.77;2.53;;;;;;;13.10;100.00;102101.47;5051693;28;20021;-70
2021/03/25 11:49:17;;;;;;;25.65;3.78;;;;;;;13.22;100.00;102110.66;5051431;28;20045;-71